Time;durP1;ratioP1;P1;durP2;ratioP2;P2;SDS_P1;SDS_P2;PMS_P1;PMS_P2;Temp;Humidity;BMP_temperature;BMP_pressure;BME280_temperature;BME280_humidity;BME280_pressure;Samples;Min_cycle;Max_cycle;Signal;HPM_P1;HPM_P2
2023/02/12 00:02:08;;;;;;;;;;;;;;;11.90;42.06;102436.75;4926519;28;126848;-69
2023/02/12 00:04:34;;;;;;;;;;;;;;;11.90;42.25;102434.03;4958464;28;113653;-67
2023/02/12 00:07:00;;;;;;;;;;;;;;;11.90;42.23;102429.47;4925573;28;98161;-69
2023/02/12 00:09:26;;;;;;;;;;;;;;;11.90;42.60;102434.03;4919922;28;118637;-67
2023/02/12 00:11:52;;;;;;;;;;;;;;;11.90;42.34;102429.47;4960880;28;127741;-67
2023/02/12 00:14:18;;;;;;;;;;;;;;;11.91;42.20;102433.84;4942490;28;122706;-67
2023/02/12 00:16:44;;;;;;;;;;;;;;;11.90;42.29;102437.56;4941444;28;127221;-68
2023/02/12 00:19:10;;;;;;;;;;;;;;;11.90;42.21;102429.47;4924353;28;131059;-69
2023/02/12 00:21:36;;;;;;;;;;;;;;;11.91;42.32;102433.84;4956260;28;127684;-67
2023/02/12 00:24:02;;;;;;;;;;;;;;;11.91;42.35;102433.84;4926273;28;98245;-67
2023/02/12 00:26:28;;;;;;;;;;;;;;;11.91;42.21;102424.91;4960292;28;120430;-69
2023/02/12 00:28:54;;;;;;;;;;;;;;;11.92;42.36;102437.34;4926116;28;99614;-68
2023/02/12 00:31:22;;;;;;;;;;;;;;;11.91;42.33;102443.81;4919315;28;125190;-69
2023/02/12 00:33:48;;;;;;;;;;;;;;;11.92;42.54;102437.34;4948053;28;98100;-67
2023/02/12 00:36:16;;;;;;;;;;;;;;;11.92;42.30;102440.06;4923856;28;100281;-67
2023/02/12 00:38:42;;;;;;;;;;;;;;;11.92;42.16;102438.19;4925654;28;97999;-69
2023/02/12 00:41:08;;;;;;;;;;;;;;;11.92;42.26;102445.47;4943986;28;111780;-68
2023/02/12 00:43:34;;;;;;;;;;;;;;;11.91;42.34;102452.75;4924258;28;121677;-67
2023/02/12 00:46:00;;;;;;;;;;;;;;;11.92;42.40;102450.88;4944484;28;98320;-67
2023/02/12 00:48:25;;;;;;;;;;;;;;;11.93;42.39;102455.22;4941141;28;113806;-67
2023/02/12 00:50:51;;;;;;;;;;;;;;;11.92;42.48;102458.97;4924654;28;127429;-68
2023/02/12 00:53:18;;;;;;;;;;;;;;;11.93;42.46;102457.91;4943642;28;122545;-67
2023/02/12 00:55:44;;;;;;;;;;;;;;;11.93;42.23;102460.63;4943335;28;98319;-69
2023/02/12 00:58:10;;;;;;;;;;;;;;;11.93;42.51;102458.75;4942074;28;100776;-67
2023/02/12 01:00:36;;;;;;;;;;;;;;;11.92;42.41;102451.69;4940362;28;98187;-67
2023/02/12 01:03:03;;;;;;;;;;;;;;;11.94;42.32;102457.69;4925420;28;120962;-68
2023/02/12 01:05:29;;;;;;;;;;;;;;;11.95;42.16;102455.81;4942312;28;98313;-67
2023/02/12 01:07:55;;;;;;;;;;;;;;;11.94;42.27;102463.09;4942069;28;98268;-69
2023/02/12 01:10:21;;;;;;;;;;;;;;;11.94;42.43;102456.84;4944967;28;98037;-67
2023/02/12 01:12:47;;;;;;;;;;;;;;;11.94;42.38;102463.09;4946496;28;98196;-67
2023/02/12 01:15:14;;;;;;;;;;;;;;;11.95;42.46;102462.06;4941847;28;100364;-68
2023/02/12 01:17:39;;;;;;;;;;;;;;;11.94;42.30;102463.09;4926553;28;98155;-68
2023/02/12 01:20:07;;;;;;;;;;;;;;;11.95;42.35;102474.75;4944038;28;127622;-68
2023/02/12 01:22:36;;;;;;;;;;;;;;;11.95;42.29;102470.16;4941662;28;98116;-68
2023/02/12 01:25:03;;;;;;;;;;;;;;;11.95;42.42;102474.75;4941593;28;98338;-67
2023/02/12 01:27:29;;;;;;;;;;;;;;;11.96;42.32;102474.50;4940372;28;99940;-68
2023/02/12 01:29:55;;;;;;;;;;;;;;;11.96;42.49;102470.97;4922603;28;127074;-69
2023/02/12 01:32:21;;;;;;;;;;;;;;;11.96;42.31;102474.50;4941319;28;118737;-68
2023/02/12 01:34:47;;;;;;;;;;;;;;;11.97;42.32;102469.91;4927632;28;99017;-69
2023/02/12 01:37:12;;;;;;;;;;;;;;;11.97;42.41;102478.84;4930406;28;98074;-68
2023/02/12 01:39:38;;;;;;;;;;;;;;;11.98;42.48;102476.97;4924117;28;127501;-67
2023/02/12 01:42:05;;;;;;;;;;;;;;;11.98;42.45;102476.97;4943777;28;122470;-67
2023/02/12 01:44:33;;;;;;;;;;;;;;;11.98;42.40;102475.09;4943268;28;98166;-67
2023/02/12 01:47:04;;;;;;;;;;;;;;;11.98;42.39;102471.56;4926413;28;98526;-68
2023/02/12 01:49:32;;;;;;;;;;;;;;;11.97;42.29;102476.16;4934921;28;107180;-69
2023/02/12 01:52:12;;;;;;;;;;;;;;;11.99;42.44;102484.03;4941268;28;98304;-67
2023/02/12 01:54:38;;;;;;;;;;;;;;;11.99;42.31;102484.88;4919851;28;98079;-67
2023/02/12 01:57:05;;;;;;;;;;;;;;;11.99;42.31;102481.34;4929110;28;129588;-67
2023/02/12 01:59:31;;;;;;;;;;;;;;;12.01;42.42;102487.34;4941180;28;98341;-67
2023/02/12 02:01:57;;;;;;;;;;;;;;;12.00;42.23;102475.69;4925611;28;115350;-69
2023/02/12 02:04:26;;;;;;;;;;;;;;;12.01;42.25;102474.63;4922224;28;130512;-67
2023/02/12 02:06:57;;;;;;;;;;;;;;;12.00;42.43;102474.88;4941672;28;98530;-69
2023/02/12 02:09:23;;;;;;;;;;;;;;;12.01;42.63;102474.63;4939490;28;98216;-67
2023/02/12 02:14:33;;;;;;;;;;;;;;;12.01;42.43;102477.34;4943819;28;99202;-68
2023/02/12 02:17:30;;;;;;;;;;;;;;;12.00;42.47;102477.56;4957056;28;98606;-69
2023/02/12 02:20:07;;;;;;;;;;;;;;;12.02;42.27;102475.47;4953810;28;123007;-68
2023/02/12 02:22:37;;;;;;;;;;;;;;;12.02;42.41;102483.56;4923123;28;98250;-67
2023/02/12 02:25:14;;;;;;;;;;;;;;;12.01;42.52;102479.22;4938832;28;119115;-68
2023/02/12 02:28:02;;;;;;;;;;;;;;;12.01;42.38;102482.75;4960777;28;98181;-67
2023/02/12 02:30:43;;;;;;;;;;;;;;;12.01;42.61;102477.34;4956463;28;102267;-67
2023/02/12 02:33:36;;;;;;;;;;;;;;;12.01;42.49;102484.63;4958702;28;98269;-67
2023/02/12 02:36:08;;;;;;;;;;;;;;;12.01;42.48;102480.03;4939998;28;103742;-67
2023/02/12 02:38:42;;;;;;;;;;;;;;;12.02;42.44;102476.31;4958447;27;100527;-69
2023/02/12 02:41:18;;;;;;;;;;;;;;;12.01;42.50;102487.34;4923790;28;117321;-69
2023/02/12 02:43:48;;;;;;;;;;;;;;;12.01;42.35;102480.03;4944712;28;98182;-69
2023/02/12 02:46:26;;;;;;;;;;;;;;;12.01;42.42;102485.44;4939900;28;99619;-67
2023/02/12 02:48:55;;;;;;;;;;;;;;;12.02;42.60;102487.13;4920880;28;101265;-69
2023/02/12 02:51:25;;;;;;;;;;;;;;;12.01;42.44;102484.63;4927664;28;106928;-68
2023/02/12 02:54:11;;;;;;;;;;;;;;;12.02;42.51;102486.28;4938629;28;118041;-69
2023/02/12 02:56:38;;;;;;;;;;;;;;;12.02;42.49;102497.09;4943300;28;98265;-67
2023/02/12 02:59:07;;;;;;;;;;;;;;;12.00;42.61;102491.09;4921854;28;111884;-68
2023/02/12 03:01:42;;;;;;;;;;;;;;;12.01;42.43;102498.97;4945113;28;98114;-67
2023/02/12 03:04:12;;;;;;;;;;;;;;;12.01;42.59;102492.75;4949150;28;99973;-67
2023/02/12 03:06:59;;;;;;;;;;;;;;;12.01;42.51;102500.84;4925161;28;102433;-69
2023/02/12 03:09:39;;;;;;;;;;;;;;;12.01;42.47;102506.25;4956610;28;118114;-68
2023/02/12 03:12:22;;;;;;;;;;;;;;;12.00;42.31;102496.50;4925569;28;98107;-68
2023/02/12 03:15:05;;;;;;;;;;;;;;;11.99;42.52;102495.69;4953308;28;106420;-68
2023/02/12 03:17:36;;;;;;;;;;;;;;;11.99;42.55;102498.38;4921527;28;112805;-68
2023/02/12 03:20:07;;;;;;;;;;;;;;;11.99;42.46;102508.38;4924418;28;98078;-67
2023/02/12 03:22:38;;;;;;;;;;;;;;;11.98;42.51;102515.63;4938916;28;98081;-68
2023/02/12 03:25:13;;;;;;;;;;;;;;;11.99;42.58;102508.38;4939145;28;98445;-67
2023/02/12 03:27:46;;;;;;;;;;;;;;;11.99;42.60;102511.06;4925927;28;98107;-69
2023/02/12 03:30:12;;;;;;;;;;;;;;;11.99;42.56;102527.28;4961854;28;119109;-67
2023/02/12 03:33:03;;;;;;;;;;;;;;;11.98;42.44;102528.31;4942859;28;128311;-68
2023/02/12 03:35:33;;;;;;;;;;;;;;;11.98;42.44;102539.13;4926637;28;98113;-67
2023/02/12 03:38:38;;;;;;;;;;;;;;;11.98;42.59;102542.66;4942091;28;120563;-67
2023/02/12 03:41:34;;;;;;;;;;;;;;;11.99;42.57;102549.72;4943418;28;98888;-68
2023/02/12 03:44:08;;;;;;;;;;;;;;;11.98;42.48;102550.75;4938049;28;98076;-69
2023/02/12 03:46:52;;;;;;;;;;;;;;;11.97;42.70;102551.81;4923302;28;98022;-67
2023/02/12 03:49:29;;;;;;;;;;;;;;;11.98;42.43;102558.06;4961281;28;104136;-69
2023/02/12 03:51:55;;;;;;;;;;;;;;;11.96;42.40;102565.56;4957638;28;98319;-69
2023/02/12 03:54:21;;;;;;;;;;;;;;;11.94;42.42;102565.78;4929332;28;100096;-68
2023/02/12 03:56:56;;;;;;;;;;;;;;;11.91;42.52;102560.84;4942152;28;122136;-70
2023/02/12 03:59:22;;;;;;;;;;;;;;;11.89;42.52;102565.63;4944982;28;105243;-69
2023/02/12 04:01:49;;;;;;;;;;;;;;;11.87;42.69;102566.91;4944819;28;97960;-67
2023/02/12 04:04:14;;;;;;;;;;;;;;;11.87;42.44;102575.00;4940830;28;97841;-68
2023/02/12 04:06:40;;;;;;;;;;;;;;;11.85;42.52;102575.25;4939463;28;121258;-67
2023/02/12 04:09:10;;;;;;;;;;;;;;;11.84;42.65;102579.00;4928274;28;125519;-68
2023/02/12 04:12:04;;;;;;;;;;;;;;;11.84;42.52;102578.19;4946392;28;98731;-67
2023/02/12 04:14:49;;;;;;;;;;;;;;;11.82;42.63;102582.94;4956802;28;98372;-68
2023/02/12 04:17:29;;;;;;;;;;;;;;;11.81;42.27;102584.81;4940177;28;98391;-67
2023/02/12 04:20:14;;;;;;;;;;;;;;;11.79;42.63;102582.34;4943335;28;98152;-68
2023/02/12 04:23:09;;;;;;;;;;;;;;;11.79;42.48;102589.66;4959137;28;98276;-69
2023/02/12 04:26:13;;;;;;;;;;;;;;;11.77;42.57;102589.84;4939947;28;112674;-68
2023/02/12 04:28:42;;;;;;;;;;;;;;;11.76;42.59;102596.31;4958498;28;98065;-68
2023/02/12 04:31:43;;;;;;;;;;;;;;;11.76;42.59;102599.00;4963381;27;98377;-68
2023/02/12 04:34:33;;;;;;;;;;;;;;;11.74;42.43;102598.41;4916159;28;99168;-69
2023/02/12 04:37:05;;;;;;;;;;;;;;;11.74;42.63;102603.81;4940798;28;98039;-68
2023/02/12 04:39:33;;;;;;;;;;;;;;;11.74;42.77;102608.38;4957988;28;112468;-68
2023/02/12 04:41:59;;;;;;;;;;;;;;;11.73;42.41;102602.16;4941243;28;127283;-70
2023/02/12 04:44:27;;;;;;;;;;;;;;;11.74;42.58;102606.50;4941818;28;127813;-67
2023/02/12 04:46:53;;;;;;;;;;;;;;;11.74;42.71;102605.69;4926125;28;99074;-67
2023/02/12 04:49:20;;;;;;;;;;;;;;;11.73;42.62;102607.56;4941084;28;98029;-68
2023/02/12 04:51:46;;;;;;;;;;;;;;;11.73;42.60;102604.84;4927971;28;107837;-68
2023/02/12 04:54:15;;;;;;;;;;;;;;;11.73;42.80;102595.94;4943357;28;126576;-70
2023/02/12 04:56:41;;;;;;;;;;;;;;;11.72;42.48;102588.88;4961445;28;123948;-68
2023/02/12 04:59:08;;;;;;;;;;;;;;;11.73;42.45;102601.34;4945832;28;101678;-68
2023/02/12 05:01:34;;;;;;;;;;;;;;;11.71;42.38;102596.16;4941302;28;98192;-69
2023/02/12 05:04:00;;;;;;;;;;;;;;;11.72;42.68;102610.50;4926812;28;99441;-67
2023/02/12 05:06:26;;;;;;;;;;;;;;;11.71;42.25;102603.41;4941968;28;99103;-69
2023/02/12 05:08:52;;;;;;;;;;;;;;;11.72;42.40;102605.09;4926115;28;122839;-68
2023/02/12 05:11:18;;;;;;;;;;;;;;;11.72;42.61;102610.50;4941143;28;98524;-68
2023/02/12 05:13:50;;;;;;;;;;;;;;;11.72;42.63;102614.03;4942114;28;119427;-67
2023/02/12 05:16:16;;;;;;;;;;;;;;;11.73;42.61;102612.13;4943630;28;113984;-68
2023/02/12 05:18:42;;;;;;;;;;;;;;;11.73;42.61;102609.44;4929496;28;98059;-69
2023/02/12 05:21:08;;;;;;;;;;;;;;;11.72;42.37;102608.63;4941577;28;128589;-67
2023/02/12 05:23:35;;;;;;;;;;;;;;;11.74;42.61;102621.88;4961676;28;127005;-67
2023/02/12 05:26:02;;;;;;;;;;;;;;;11.74;42.66;102616.50;4946635;28;115478;-66
2023/02/12 05:28:28;;;;;;;;;;;;;;;11.74;42.40;102613.78;4961200;28;98006;-67
2023/02/12 05:30:54;;;;;;;;;;;;;;;11.74;42.47;102617.31;4941847;28;113873;-67
2023/02/12 05:33:20;;;;;;;;;;;;;;;11.73;42.67;102612.97;4924451;28;111445;-68
2023/02/12 05:35:46;;;;;;;;;;;;;;;11.74;42.67;102611.09;4940719;28;127367;-68
2023/02/12 05:38:12;;;;;;;;;;;;;;;11.74;42.25;102611.09;4948595;28;97870;-68
2023/02/12 05:40:39;;;;;;;;;;;;;;;11.74;42.45;102611.91;4940867;28;128267;-69
2023/02/12 05:43:05;;;;;;;;;;;;;;;11.74;42.63;102611.91;4921131;28;98039;-69
2023/02/12 05:45:32;;;;;;;;;;;;;;;11.74;42.66;102614.59;4925356;28;109438;-69
2023/02/12 05:47:58;;;;;;;;;;;;;;;11.75;42.62;102618.13;4940816;28;98004;-68
2023/02/12 05:50:24;;;;;;;;;;;;;;;11.74;42.70;102620.00;4931451;28;129184;-67
2023/02/12 05:52:49;;;;;;;;;;;;;;;11.74;42.85;102625.41;4955533;28;99941;-69
2023/02/12 05:55:15;;;;;;;;;;;;;;;11.74;42.66;102628.13;4922558;28;128265;-68
2023/02/12 05:57:41;;;;;;;;;;;;;;;11.75;42.68;102640.59;4941977;28;121597;-68
2023/02/12 06:00:08;;;;;;;;;;;;;;;11.73;42.67;102629.16;4924058;28;127741;-68
2023/02/12 06:02:34;;;;;;;;;;;;;;;11.75;42.84;102637.91;4943331;28;110805;-67
2023/02/12 06:05:00;;;;;;;;;;;;;;;11.75;42.27;102640.59;4923771;28;125788;-68
2023/02/12 06:07:26;;;;;;;;;;;;;;;11.75;42.61;102642.44;4941817;28;97897;-68
2023/02/12 06:09:53;;;;;;;;;;;;;;;11.76;42.65;102647.66;4938904;28;117554;-67
2023/02/12 06:12:19;;;;;;;;;;;;;;;11.76;42.57;102638.72;4924507;28;99826;-68
2023/02/12 06:14:45;;;;;;;;;;;;;;;11.75;42.78;102642.44;4943047;28;121909;-69
2023/02/12 06:17:11;;;;;;;;;;;;;;;11.77;42.68;102654.69;4922593;28;122334;-68
2023/02/12 06:19:37;;;;;;;;;;;;;;;11.77;42.49;102651.16;4942082;28;98541;-68
2023/02/12 06:22:03;;;;;;;;;;;;;;;11.78;42.50;102653.63;4941536;28;129914;-67
2023/02/12 06:24:29;;;;;;;;;;;;;;;11.78;42.73;102650.13;4925601;28;113133;-68
2023/02/12 06:26:55;;;;;;;;;;;;;;;11.78;42.54;102650.13;4955083;28;121204;-67
2023/02/12 06:29:21;;;;;;;;;;;;;;;11.79;42.82;102654.50;4942626;28;127338;-67
2023/02/12 06:31:47;;;;;;;;;;;;;;;11.78;42.87;102664.44;4941834;28;114722;-68
2023/02/12 06:34:13;;;;;;;;;;;;;;;11.79;42.44;102666.13;4942160;28;119756;-68
2023/02/12 06:36:40;;;;;;;;;;;;;;;11.81;42.74;102665.88;4960054;28;98026;-69
2023/02/12 06:39:06;;;;;;;;;;;;;;;11.82;42.55;102672.13;4955771;28;123062;-68
2023/02/12 06:41:32;;;;;;;;;;;;;;;11.82;42.74;102677.53;4958367;28;98405;-69
2023/02/12 06:43:58;;;;;;;;;;;;;;;11.83;42.66;102679.16;4957796;28;98169;-69
2023/02/12 06:46:24;;;;;;;;;;;;;;;11.84;42.64;102697.91;4929391;28;123143;-68
2023/02/12 06:48:54;;;;;;;;;;;;;;;11.85;42.50;102693.34;4954428;28;98468;-67
2023/02/12 06:51:22;;;;;;;;;;;;;;;11.86;42.58;102698.50;4958271;28;98318;-67
2023/02/12 06:53:48;;;;;;;;;;;;;;;11.87;42.82;102694.78;4952074;28;97989;-68
2023/02/12 06:56:14;;;;;;;;;;;;;;;11.89;42.44;102702.66;4945398;28;116823;-69
2023/02/12 06:58:41;;;;;;;;;;;;;;;11.91;42.64;102697.84;4956984;28;127038;-69
2023/02/12 07:01:12;;;;;;;;;;;;;;;11.93;42.55;102706.56;4961223;28;98497;-69
2023/02/12 07:03:41;;;;;;;;;;;;;;;11.95;42.33;102708.00;4941101;28;98996;-69
2023/02/12 07:06:07;;;;;;;;;;;;;;;11.95;42.49;102707.19;4943062;28;98135;-69
2023/02/12 07:08:33;;;;;;;;;;;;;;;11.97;42.51;102708.59;4974283;27;117447;-67
2023/02/12 07:10:59;;;;;;;;;;;;;;;12.01;42.51;102712.50;4957835;28;112634;-68
2023/02/12 07:13:25;;;;;;;;;;;;;;;12.06;42.46;102708.28;4957594;28;128386;-66
2023/02/12 07:15:51;;;;;;;;;;;;;;;12.12;42.43;102713.66;4958570;28;124699;-68
2023/02/12 07:18:17;;;;;;;;;;;;;;;12.22;42.43;102716.69;4939225;28;111885;-67
2023/02/12 07:20:43;;;;;;;;;;;;;;;12.35;42.60;102720.28;4957982;28;100356;-67
2023/02/12 07:23:12;;;;;;;;;;;;;;;12.44;42.53;102719.75;4957138;28;127251;-68
2023/02/12 07:25:38;;;;;;;;;;;;;;;12.51;42.44;102722.38;4940886;28;98742;-69
2023/02/12 07:28:04;;;;;;;;;;;;;;;12.58;42.53;102730.44;4956561;28;122460;-68
2023/02/12 07:30:30;;;;;;;;;;;;;;;12.62;42.28;102728.94;4973050;27;120118;-69
2023/02/12 07:32:56;;;;;;;;;;;;;;;12.68;42.52;102728.00;4954854;28;115454;-67
2023/02/12 07:35:22;;;;;;;;;;;;;;;12.76;42.26;102725.81;4957389;28;122974;-67
2023/02/12 07:37:48;;;;;;;;;;;;;;;12.85;42.59;102730.91;4941831;28;129205;-70
2023/02/12 07:40:14;;;;;;;;;;;;;;;12.92;42.24;102735.19;4954879;28;128399;-68
2023/02/12 07:42:40;;;;;;;;;;;;;;;12.98;42.26;102733.47;4957093;28;120353;-67
2023/02/12 07:45:06;;;;;;;;;;;;;;;13.00;42.33;102740.28;4955056;28;120361;-69
2023/02/12 07:47:32;;;;;;;;;;;;;;;13.03;42.56;102741.72;4958545;28;98759;-67
2023/02/12 07:49:58;;;;;;;;;;;;;;;13.06;42.65;102743.16;4970168;27;126332;-68
2023/02/12 07:52:24;;;;;;;;;;;;;;;13.08;42.22;102743.72;4955035;28;100874;-67
2023/02/12 07:54:50;;;;;;;;;;;;;;;13.10;42.36;102750.59;4940825;28;123384;-67
2023/02/12 07:57:15;;;;;;;;;;;;;;;13.13;42.53;102752.00;4923350;28;126689;-69
2023/02/12 07:59:41;;;;;;;;;;;;;;;13.15;42.29;102758.00;4957060;28;127155;-67
2023/02/12 08:02:08;;;;;;;;;;;;;;;13.16;42.37;102765.91;4953667;28;126855;-68
2023/02/12 08:04:34;;;;;;;;;;;;;;;13.18;42.60;102758.38;4955480;28;98804;-69
2023/02/12 08:07:01;;;;;;;;;;;;;;;13.21;42.53;102765.22;4956215;28;127884;-67
2023/02/12 08:09:29;;;;;;;;;;;;;;;13.23;42.41;102772.09;4940460;28;98427;-67
2023/02/12 08:11:55;;;;;;;;;;;;;;;13.29;42.23;102778.47;4940877;28;98951;-70
2023/02/12 08:14:21;;;;;;;;;;;;;;;13.31;42.12;102772.81;4940972;28;101050;-67
2023/02/12 08:16:47;;;;;;;;;;;;;;;13.36;42.29;102775.66;4940757;28;98174;-67
2023/02/12 08:19:14;;;;;;;;;;;;;;;13.39;42.41;102773.31;4939360;28;98496;-67
2023/02/12 08:21:40;;;;;;;;;;;;;;;13.45;42.50;102783.25;4957393;28;98303;-69
2023/02/12 08:24:06;;;;;;;;;;;;;;;13.50;42.08;102779.84;4940768;28;121412;-67
2023/02/12 08:26:37;;;;;;;;;;;;;;;13.54;42.09;102777.50;4948471;27;113186;-69
2023/02/12 08:29:04;;;;;;;;;;;;;;;13.59;42.47;102772.19;4956107;28;125494;-67
2023/02/12 08:31:34;;;;;;;;;;;;;;;13.64;42.17;102786.72;4946757;28;99276;-69
2023/02/12 08:34:00;;;;;;;;;;;;;;;13.68;42.17;102782.50;4942362;28;98060;-68
2023/02/12 08:36:27;;;;;;;;;;;;;;;13.73;42.28;102784.50;4940432;27;127789;-70
2023/02/12 08:38:53;;;;;;;;;;;;;;;13.76;41.99;102784.03;4972333;28;121573;-70
2023/02/12 08:41:21;;;;;;;;;;;;;;;13.80;42.00;102789.81;4956997;28;115927;-68
2023/02/12 08:43:48;;;;;;;;;;;;;;;13.84;42.16;102782.88;4958625;28;117913;-69
2023/02/12 08:46:22;;;;;;;;;;;;;;;13.87;41.96;102788.66;4957542;27;99093;-67
2023/02/12 08:48:50;;;;;;;;;;;;;;;13.91;42.07;102783.56;4944576;28;99616;-70
2023/02/12 08:51:21;;;;;;;;;;;;;;;13.91;42.15;102784.44;4956310;28;98084;-67
2023/02/12 08:53:47;;;;;;;;;;;;;;;13.92;42.37;102794.19;4955105;28;116458;-67
2023/02/12 08:56:14;;;;;;;;;;;;;;;13.91;42.22;102789.84;4958913;28;97983;-67
2023/02/12 08:58:40;;;;;;;;;;;;;;;13.92;42.46;102796.09;4942175;28;98895;-69
2023/02/12 09:01:12;;;;;;;;;;;;;;;13.92;42.20;102791.50;4973002;27;126326;-67
2023/02/12 09:03:37;;;;;;;;;;;;;;;13.92;42.13;102802.34;4938041;28;98116;-69
2023/02/12 09:06:05;;;;;;;;;;;;;;;13.94;42.21;102810.22;4940164;28;124102;-67
2023/02/12 09:08:30;;;;;;;;;;;;;;;13.93;42.55;102803.16;4922872;28;111404;-69
2023/02/12 09:10:56;;;;;;;;;;;;;;;13.93;42.21;102803.16;4956196;28;125269;-67
2023/02/12 09:13:22;;;;;;;;;;;;;;;13.94;42.33;102810.22;4951207;28;122083;-67
2023/02/12 09:15:48;;;;;;;;;;;;;;;13.94;42.21;102807.50;4952816;28;126786;-67
2023/02/12 09:18:14;;;;;;;;;;;;;;;13.93;42.56;102811.28;4936451;28;113252;-70
2023/02/12 09:20:42;;;;;;;;;;;;;;;13.95;42.17;102806.44;4937817;28;98052;-67
2023/02/12 09:23:09;;;;;;;;;;;;;;;13.96;42.31;102811.66;4940462;28;98042;-69
2023/02/12 09:25:41;;;;;;;;;;;;;;;13.99;42.17;102810.38;4936564;28;109963;-70
2023/02/12 09:28:07;;;;;;;;;;;;;;;14.02;42.12;102820.72;4920453;28;106872;-71
2023/02/12 09:30:34;;;;;;;;;;;;;;;14.04;42.04;102821.34;4921758;28;98162;-70
2023/02/12 09:33:00;;;;;;;;;;;;;;;14.06;42.17;102823.78;4935233;28;114676;-70
2023/02/12 09:35:26;;;;;;;;;;;;;;;14.07;42.21;102826.28;4930572;28;127759;-69
2023/02/12 09:37:52;;;;;;;;;;;;;;;14.08;42.18;102835.25;4930884;28;127340;-70
2023/02/12 09:40:32;;;;;;;;;;;;;;;14.09;42.12;102832.28;4946990;28;112611;-67
2023/02/12 09:43:10;;;;;;;;;;;;;;;14.13;42.46;102838.91;4933959;28;114432;-70
2023/02/12 09:45:45;;;;;;;;;;;;;;;14.12;42.23;102842.69;4953067;28;98529;-70
2023/02/12 09:48:28;;;;;;;;;;;;;;;14.13;42.24;102848.94;4937772;28;100156;-70
2023/02/12 09:50:55;;;;;;;;;;;;;;;14.15;42.27;102841.41;4938780;28;124766;-70
2023/02/12 09:53:23;;;;;;;;;;;;;;;14.17;42.51;102841.97;4935089;28;117743;-70
2023/02/12 09:55:50;;;;;;;;;;;;;;;14.23;42.08;102851.91;4939071;28;101063;-68
2023/02/12 09:58:28;;;;;;;;;;;;;;;14.25;42.32;102845.16;4936838;28;98997;-70
2023/02/12 10:00:54;;;;;;;;;;;;;;;14.27;42.15;102853.09;4937801;28;121750;-68
2023/02/12 10:03:20;;;;;;;;;;;;;;;14.27;42.37;102846.84;4922568;28;122599;-68
2023/02/12 10:05:49;;;;;;;;;;;;;;;14.29;42.15;102860.97;4937135;28;129395;-68
2023/02/12 10:08:34;;;;;;;;;;;;;;;14.30;42.41;102858.00;4921490;28;118881;-68
2023/02/12 10:11:00;;;;;;;;;;;;;;;14.35;42.46;102854.63;4935881;28;98015;-68
2023/02/12 10:13:54;;;;;;;;;;;;;;;14.39;42.01;102855.81;4961950;27;99028;-70
2023/02/12 10:16:36;;;;;;;;;;;;;;;14.42;42.17;102849.88;4955421;27;98534;-70
2023/02/12 10:19:09;;;;;;;;;;;;;;;14.44;42.14;102851.31;4970295;27;99486;-69
2023/02/12 10:21:51;;;;;;;;;;;;;;;14.47;42.40;102848.13;4972271;27;114687;-67
2023/02/12 10:24:35;;;;;;;;;;;;;;;14.52;41.99;102847.44;4973269;27;106357;-70
2023/02/12 10:27:04;;;;;;;;;;;;;;;14.57;42.25;102839.41;4971508;27;100380;-70
2023/02/12 10:29:34;;;;;;;;;;;;;;;14.58;41.92;102838.38;4953244;28;128032;-68
2023/02/12 10:32:03;;;;;;;;;;;;;;;14.60;42.23;102843.56;4953833;28;98607;-70
2023/02/12 10:34:34;;;;;;;;;;;;;;;14.60;42.14;102838.13;4941838;27;98097;-68
2023/02/12 10:37:13;;;;;;;;;;;;;;;14.61;42.29;102842.50;4953279;28;100350;-70
2023/02/12 10:39:45;;;;;;;;;;;;;;;14.65;42.12;102840.94;4956586;27;124293;-67
2023/02/12 10:42:15;;;;;;;;;;;;;;;14.71;42.00;102834.59;4967639;27;123236;-69
2023/02/12 10:44:41;;;;;;;;;;;;;;;14.72;42.30;102838.94;4968513;27;98969;-69
2023/02/12 10:47:16;;;;;;;;;;;;;;;14.75;42.33;102838.47;4933710;28;127754;-70
2023/02/12 10:49:42;;;;;;;;;;;;;;;14.75;42.46;102834.94;4939227;27;120739;-68
2023/02/12 10:52:13;;;;;;;;;;;;;;;14.79;41.96;102831.50;4952525;28;127023;-67
2023/02/12 10:54:41;;;;;;;;;;;;;;;14.87;41.86;102828.41;4976617;27;98486;-68
2023/02/12 10:57:11;;;;;;;;;;;;;;;14.97;42.24;102819.63;4956627;28;99069;-70
2023/02/12 10:59:37;;;;;;;;;;;;;;;15.05;41.99;102821.16;4972347;27;98418;-70
2023/02/12 11:02:04;;;;;;;;;;;;;;;15.14;42.19;102823.28;4940387;28;115753;-68
2023/02/12 11:04:31;;;;;;;;;;;;;;;15.30;41.91;102823.56;4956032;27;110520;-67
2023/02/12 11:07:02;;;;;;;;;;;;;;;15.44;41.92;102822.19;4939008;28;123742;-68
2023/02/12 11:09:49;;;;;;;;;;;;;;;15.48;41.75;102826.06;4942303;27;98491;-68
2023/02/12 11:12:48;;;;;;;;;;;;;;;15.65;41.76;102818.81;4952604;27;99007;-68
2023/02/12 11:15:24;;;;;;;;;;;;;;;15.74;41.89;102815.72;4911982;27;122367;-68
2023/02/12 11:18:04;;;;;;;;;;;;;;;15.78;41.86;102825.03;4956106;28;98473;-68
2023/02/12 11:20:42;;;;;;;;;;;;;;;15.99;41.47;102823.47;4953878;27;98360;-70
2023/02/12 11:23:32;;;;;;;;;;;;;;;16.05;41.51;102817.03;4935911;28;98045;-67
2023/02/12 11:26:06;;;;;;;;;;;;;;;16.09;41.61;102824.47;4953214;28;98060;-67
2023/02/12 11:28:34;;;;;;;;;;;;;;;16.18;41.55;102820.25;4956005;27;98528;-70
2023/02/12 11:31:02;;;;;;;;;;;;;;;16.31;41.48;102818.25;4953693;28;99890;-68
2023/02/12 11:33:29;;;;;;;;;;;;;;;16.38;41.13;102825.16;4951827;27;99511;-70
2023/02/12 11:36:03;;;;;;;;;;;;;;;16.44;41.57;102815.19;4954546;28;99407;-67
2023/02/12 11:38:37;;;;;;;;;;;;;;;16.40;41.71;102817.59;4972527;27;98168;-67
2023/02/12 11:41:16;;;;;;;;;;;;;;;16.44;41.79;102816.00;4939020;28;98155;-68
2023/02/12 11:43:42;;;;;;;;;;;;;;;16.45;41.73;102814.13;4956617;27;113840;-71
2023/02/12 11:46:08;;;;;;;;;;;;;;;16.52;41.75;102812.03;4961046;28;121638;-70
2023/02/12 11:48:43;;;;;;;;;;;;;;;16.61;41.56;102805.06;4957714;27;99933;-70
2023/02/12 11:51:09;;;;;;;;;;;;;;;16.58;41.82;102812.91;4953824;28;130516;-69
2023/02/12 11:53:39;;;;;;;;;;;;;;;16.53;41.88;102810.97;4957839;27;98282;-71
2023/02/12 11:56:09;;;;;;;;;;;;;;;16.61;41.85;102806.97;4942301;28;98214;-68
2023/02/12 11:58:35;;;;;;;;;;;;;;;16.62;41.84;102805.91;4931291;27;115043;-70
2023/02/12 12:01:12;;;;;;;;;;;;;;;16.67;41.74;102806.00;4955759;27;128195;-68
2023/02/12 12:03:50;;;;;;;;;;;;;;;16.64;41.78;102799.13;4949475;27;98223;-69
2023/02/12 12:06:26;;;;;;;;;;;;;;;16.58;42.05;102807.47;4970483;27;99063;-71
2023/02/12 12:09:01;;;;;;;;;;;;;;;16.54;42.00;102806.34;4956109;28;98867;-71
2023/02/12 12:11:59;;;;;;;;;;;;;;;16.45;42.09;102809.50;4938537;27;98295;-69
2023/02/12 12:14:30;;;;;;;;;;;;;;;16.34;42.29;102810.41;4950857;28;99946;-71
2023/02/12 12:20:09;;;;;;;;;;;;;;;16.16;42.32;102810.69;4942101;28;98330;-71
2023/02/12 12:22:38;;;;;;;;;;;;;;;16.05;42.31;102806.16;4956557;28;98473;-71
2023/02/12 12:25:22;;;;;;;;;;;;;;;15.96;42.62;102808.47;4943057;28;98348;-68
2023/02/12 12:28:04;;;;;;;;;;;;;;;15.89;42.59;102802.38;4976590;27;98348;-71
2023/02/12 12:30:54;;;;;;;;;;;;;;;15.83;42.46;102796.00;4971971;28;98376;-68
2023/02/12 12:33:23;;;;;;;;;;;;;;;15.77;42.50;102797.00;4972693;27;98014;-68
2023/02/12 12:36:28;;;;;;;;;;;;;;;15.74;42.47;102794.78;4976294;27;98093;-69
2023/02/12 12:39:17;;;;;;;;;;;;;;;15.70;42.58;102797.16;4941935;28;98141;-68
2023/02/12 12:42:20;;;;;;;;;;;;;;;15.67;42.65;102791.38;4972615;27;98395;-71
2023/02/12 12:45:17;;;;;;;;;;;;;;;15.61;42.62;102789.63;4976892;28;98621;-70
2023/02/12 12:48:06;;;;;;;;;;;;;;;15.57;42.44;102783.03;4972624;27;98256;-68
2023/02/12 12:50:56;;;;;;;;;;;;;;;15.53;42.86;102785.41;4971912;27;119344;-70
2023/02/12 12:53:42;;;;;;;;;;;;;;;15.48;42.64;102785.31;4953673;28;98578;-71
2023/02/12 12:56:43;;;;;;;;;;;;;;;15.43;42.74;102779.78;4963100;27;98482;-68